| time (UTC) | temp C | wind direction | speed KPH | gust KPH | rain 1hr cm | rain 24hr cm | rain mn cm | humidity % | barometer mb |
| 20260510190301 | 28 | 183 | 0.0 | 0.0 | 0.00 | 0.00 | 0.00 | 24 | 1009.7 |
| 20260510185757 | 28 | 179 | 0.0 | 0.0 | 0.00 | 0.00 | 0.00 | 28 | 1009.4 |
| 20260510185255 | 28 | 180 | 3.2 | 1.6 | 0.00 | 0.00 | 0.00 | 28 | 1009.5 |
| 20260510184752 | 28 | 272 | 0.0 | 0.0 | 0.00 | 0.00 | 0.00 | 26 | 1009.7 |
| 20260510184248 | 28 | 156 | 1.6 | 1.6 | 0.00 | 0.00 | 0.00 | 29 | 1009.6 |
| 20260510183743 | 28 | 323 | 4.8 | 4.8 | 0.00 | 0.00 | 0.00 | 27 | 1009.8 |
| 20260510183238 | 28 | 40 | 1.6 | 1.6 | 0.00 | 0.00 | 0.00 | 28 | 1009.8 |
| 20260510182735 | 28 | 288 | 3.2 | 3.2 | 0.00 | 0.00 | 0.00 | 31 | 1009.8 |
| 20260510182230 | 28 | 327 | 4.8 | 4.8 | 0.00 | 0.00 | 0.00 | 29 | 1009.7 |
| 20260510181727 | 27 | 235 | 1.6 | 1.6 | 0.00 | 0.00 | 0.00 | 29 | 1009.8 |
| 20260510181225 | 27 | 203 | 1.6 | 1.6 | 0.00 | 0.00 | 0.00 | 27 | 1009.7 |
| 20260510180720 | 28 | 64 | 3.2 | 4.8 | 0.00 | 0.00 | 0.00 | 26 | 1009.8 |
| 20260510180218 | 27 | 214 | 0.0 | 0.0 | 0.00 | 0.00 | 0.00 | 30 | 1009.8 |
| 20260510175714 | 27 | 298 | 3.2 | 3.2 | 0.00 | 0.00 | 0.00 | 28 | 1009.9 |
| 20260510175210 | 28 | 279 | 3.2 | 3.2 | 0.00 | 0.00 | 0.00 | 27 | 1010.1 |
| 20260510174707 | 28 | 273 | 1.6 | 1.6 | 0.00 | 0.00 | 0.00 | 27 | 1010.0 |
| 20260510174205 | 27 | 193 | 1.6 | 1.6 | 0.00 | 0.00 | 0.00 | 27 | 1010.0 |
| 20260510173700 | 27 | 318 | 3.2 | 4.8 | 0.00 | 0.00 | 0.00 | 29 | 1010.1 |
| 20260510173157 | 27 | 292 | 4.8 | 4.8 | 0.00 | 0.00 | 0.00 | 29 | 1010.1 |
| 20260510172652 | 27 | 190 | 1.6 | 1.6 | 0.00 | 0.00 | 0.00 | 27 | 1010.2 |
| 20260510172149 | 27 | 205 | 1.6 | 1.6 | 0.00 | 0.00 | 0.00 | 28 | 1010.3 |
| 20260510171645 | 27 | 186 | 3.2 | 3.2 | 0.00 | 0.00 | 0.00 | 26 | 1010.5 |
| 20260510171143 | 28 | 181 | 1.6 | 1.6 | 0.00 | 0.00 | 0.00 | 25 | 1010.4 |
| 20260510170639 | 27 | 196 | 3.2 | 1.6 | 0.00 | 0.00 | 0.00 | 29 | 1010.4 |
| 20260510170136 | 27 | 196 | 1.6 | 1.6 | 0.00 | 0.00 | 0.00 | 27 | 1010.3 |
| 20260510165631 | 27 | 190 | 1.6 | 3.2 | 0.00 | 0.00 | 0.00 | 27 | 1010.6 |
| 20260510165127 | 27 | 170 | 1.6 | 1.6 | 0.00 | 0.00 | 0.00 | 30 | 1010.3 |
| 20260510164625 | 27 | 181 | 3.2 | 3.2 | 0.00 | 0.00 | 0.00 | 29 | 1010.3 |
| 20260510164122 | 28 | 238 | 3.2 | 3.2 | 0.00 | 0.00 | 0.00 | 29 | 1010.5 |
| 20260510163617 | 27 | 194 | 0.0 | 1.6 | 0.00 | 0.00 | 0.00 | 34 | 1010.3 |
| 20260510163114 | 27 | 217 | 3.2 | 3.2 | 0.00 | 0.00 | 0.00 | 30 | 1010.2 |
| 20260510162608 | 27 | 186 | 0.0 | 0.0 | 0.00 | 0.00 | 0.00 | 33 | 1010.6 |
| 20260510162105 | 27 | 173 | 4.8 | 4.8 | 0.00 | 0.00 | 0.00 | 31 | 1010.5 |
| 20260510161600 | 26 | 359 | 1.6 | 3.2 | 0.00 | 0.00 | 0.00 | 32 | 1010.6 |
| 20260510161058 | 26 | 297 | 3.2 | 3.2 | 0.00 | 0.00 | 0.00 | 32 | 1010.3 |
| 20260510160555 | 27 | 178 | 1.6 | 1.6 | 0.00 | 0.00 | 0.00 | 32 | 1010.6 |
| 20260510160054 | 26 | 223 | 1.6 | 1.6 | 0.00 | 0.00 | 0.00 | 34 | 1010.7 |
| 20260510155551 | 26 | 208 | 0.0 | 0.0 | 0.00 | 0.00 | 0.00 | 37 | 1010.4 |
| 20260510155048 | 26 | 259 | 1.6 | 1.6 | 0.00 | 0.00 | 0.00 | 36 | 1010.8 |
| 20260510154543 | 26 | 217 | 1.6 | 1.6 | 0.00 | 0.00 | 0.00 | 36 | 1010.5 |
| 20260510154038 | 26 | 148 | 0.0 | 0.0 | 0.00 | 0.00 | 0.00 | 39 | 1010.6 |
| 20260510153533 | 26 | 225 | 1.6 | 1.6 | 0.00 | 0.00 | 0.00 | 38 | 1010.6 |
| 20260510153031 | 26 | 185 | 3.2 | 3.2 | 0.00 | 0.00 | 0.00 | 38 | 1010.5 |
| 20260510152528 | 26 | 129 | 3.2 | 3.2 | 0.00 | 0.00 | 0.00 | 36 | 1010.6 |
| 20260510152024 | 25 | 243 | 3.2 | 3.2 | 0.00 | 0.00 | 0.00 | 37 | 1010.6 |
| 20260510151521 | 25 | 189 | 0.0 | 0.0 | 0.00 | 0.00 | 0.00 | 39 | 1010.6 |
| 20260510151018 | 25 | 178 | 1.6 | 1.6 | 0.00 | 0.00 | 0.00 | 43 | 1010.7 |
| 20260510150513 | 25 | 14 | 0.0 | 0.0 | 0.00 | 0.00 | 0.00 | 43 | 1010.7 |
| 20260510150010 | 25 | 208 | 3.2 | 3.2 | 0.00 | 0.00 | 0.00 | 43 | 1010.7 |
| 20260510145506 | 24 | 173 | 1.6 | 1.6 | 0.00 | 0.00 | 0.00 | 45 | 1010.8 |
| 20260510145002 | 24 | 196 | 1.6 | 3.2 | 0.00 | 0.00 | 0.00 | 43 | 1010.7 |
| 20260510144459 | 24 | 189 | 3.2 | 3.2 | 0.00 | 0.00 | 0.00 | 46 | 1010.7 |
| 20260510143955 | 23 | 208 | 1.6 | 1.6 | 0.00 | 0.00 | 0.00 | 48 | 1010.8 |
| 20260510143451 | 23 | 223 | 1.6 | 1.6 | 0.00 | 0.00 | 0.00 | 49 | 1010.9 |
| 20260510142948 | 23 | 182 | 1.6 | 1.6 | 0.00 | 0.00 | 0.00 | 48 | 1010.8 |
| 20260510142445 | 22 | 217 | 1.6 | 1.6 | 0.00 | 0.00 | 0.00 | 50 | 1010.7 |
| 20260510141941 | 22 | 172 | 1.6 | 1.6 | 0.00 | 0.00 | 0.00 | 53 | 1010.7 |
| 20260510141438 | 22 | 186 | 1.6 | 1.6 | 0.00 | 0.00 | 0.00 | 56 | 1010.7 |
| 20260510140935 | 21 | 186 | 0.0 | 1.6 | 0.00 | 0.00 | 0.00 | 55 | 1010.5 |
| 20260510140431 | 21 | 205 | 0.0 | 0.0 | 0.00 | 0.00 | 0.00 | 58 | 1010.7 |
| 20260510135930 | 21 | 208 | 1.6 | 1.6 | 0.00 | 0.00 | 0.00 | 58 | 1010.7 |
| 20260510135426 | 21 | 210 | 0.0 | 0.0 | 0.00 | 0.00 | 0.00 | 61 | 1010.5 |
| 20260510134924 | 21 | 210 | 0.0 | 0.0 | 0.00 | 0.00 | 0.00 | 64 | 1010.6 |
| 20260510134420 | 20 | 196 | 0.0 | 0.0 | 0.00 | 0.00 | 0.00 | 66 | 1010.7 |
| 20260510133917 | 20 | 180 | 1.6 | 1.6 | 0.00 | 0.00 | 0.00 | 67 | 1010.4 |
| 20260510133413 | 20 | 152 | 0.0 | 0.0 | 0.00 | 0.00 | 0.00 | 69 | 1010.4 |
| 20260510132908 | 20 | 177 | 1.6 | 1.6 | 0.00 | 0.00 | 0.00 | 71 | 1010.5 |
| 20260510132407 | 19 | 194 | 0.0 | 0.0 | 0.00 | 0.00 | 0.00 | 72 | 1010.6 |
| 20260510131903 | 19 | 192 | 1.6 | 1.6 | 0.00 | 0.00 | 0.00 | 73 | 1010.6 |
| 20260510131401 | 19 | 177 | 0.0 | 0.0 | 0.00 | 0.00 | 0.00 | 74 | 1010.5 |
| 20260510130857 | 18 | 192 | 1.6 | 3.2 | 0.00 | 0.00 | 0.00 | 75 | 1010.5 |
| 20260510130354 | 18 | 206 | 0.0 | 0.0 | 0.00 | 0.00 | 0.00 | 78 | 1010.6 |
| 20260510125851 | 18 | 205 | 0.0 | 0.0 | 0.00 | 0.00 | 0.00 | 81 | 1010.6 |
| 20260510125347 | 18 | 205 | 0.0 | 0.0 | 0.00 | 0.00 | 0.00 | 83 | 1010.5 |
| 20260510124844 | 17 | 201 | 0.0 | 1.6 | 0.00 | 0.00 | 0.00 | 85 | 1010.5 |
| 20260510124341 | 17 | 217 | 0.0 | 0.0 | 0.00 | 0.00 | 0.00 | 88 | 1010.2 |
| 20260510123837 | 17 | 221 | 0.0 | 1.6 | 0.00 | 0.00 | 0.00 | 89 | 1010.6 |
| 20260510123332 | 16 | 220 | 0.0 | 0.0 | 0.00 | 0.00 | 0.00 | 93 | 1010.4 |
| 20260510122829 | 16 | 220 | 0.0 | 0.0 | 0.00 | 0.00 | 0.00 | 96 | 1010.3 |
| 20260510122325 | 16 | 220 | 0.0 | 0.0 | 0.00 | 0.00 | 0.00 | 97 | 1010.4 |
| 20260510121821 | 16 | 220 | 0.0 | 0.0 | 0.00 | 0.00 | 0.00 | 98 | 1010.2 |
| 20260510121319 | 16 | 220 | 0.0 | 1.6 | 0.00 | 0.00 | 0.00 | 98 | 1009.9 |
| 20260510120816 | 15 | 220 | 0.0 | 0.0 | 0.00 | 0.00 | 0.00 | 98 | 1009.7 |
| 20260510120313 | 15 | 220 | 0.0 | 0.0 | 0.00 | 0.00 | 0.00 | 98 | 1009.6 |
| 20260510115808 | 15 | 220 | 0.0 | 0.0 | 0.00 | 0.00 | 0.00 | 98 | 1009.7 |
| 20260510115307 | 14 | 221 | 0.0 | 0.0 | 0.00 | 0.00 | 0.00 | 98 | 1009.6 |
| 20260510114802 | 13 | 223 | 0.0 | 0.0 | 0.00 | 0.00 | 0.00 | 98 | 1009.5 |
| 20260510114259 | 13 | 223 | 0.0 | 0.0 | 0.00 | 0.00 | 0.00 | 98 | 1009.4 |
| 20260510113759 | 12 | 223 | 0.0 | 0.0 | 0.00 | 0.00 | 0.00 | 98 | 1009.5 |
| 20260510113257 | 12 | 223 | 0.0 | 0.0 | 0.00 | 0.00 | 0.00 | 98 | 1009.3 |
| 20260510112753 | 13 | 277 | 0.0 | 0.0 | 0.00 | 0.00 | 0.00 | 98 | 1009.1 |
| 20260510112250 | 13 | 277 | 0.0 | 0.0 | 0.00 | 0.00 | 0.00 | 98 | 1009.1 |
| 20260510111746 | 13 | 277 | 0.0 | 0.0 | 0.00 | 0.00 | 0.00 | 98 | 1008.9 |
| 20260510111243 | 13 | 277 | 0.0 | 0.0 | 0.00 | 0.00 | 0.00 | 98 | 1009.0 |
| 20260510110742 | 12 | 277 | 0.0 | 0.0 | 0.00 | 0.00 | 0.00 | 98 | 1008.8 |
| 20260510110241 | 11 | 277 | 0.0 | 0.0 | 0.00 | 0.00 | 0.00 | 97 | 1008.6 |
| 20260510105740 | 11 | 277 | 0.0 | 0.0 | 0.00 | 0.00 | 0.00 | 97 | 1008.6 |
| 20260510105235 | 11 | 277 | 0.0 | 0.0 | 0.00 | 0.00 | 0.00 | 97 | 1008.5 |
| 20260510104732 | 11 | 277 | 0.0 | 0.0 | 0.00 | 0.00 | 0.00 | 97 | 1008.6 |
| 20260510104230 | 11 | 277 | 0.0 | 0.0 | 0.00 | 0.00 | 0.00 | 97 | 1008.4 |
| 20260510103726 | 11 | 277 | 0.0 | 0.0 | 0.00 | 0.00 | 0.00 | 97 | 1008.5 |
| 20260510103223 | 12 | 277 | 0.0 | 0.0 | 0.00 | 0.00 | 0.00 | 97 | 1008.4 |
| 20260510102722 | 12 | 277 | 0.0 | 0.0 | 0.00 | 0.00 | 0.00 | 97 | 1008.4 |
| 20260510102218 | 12 | 277 | 0.0 | 0.0 | 0.00 | 0.00 | 0.00 | 97 | 1008.3 |
| 20260510101716 | 12 | 277 | 0.0 | 0.0 | 0.00 | 0.00 | 0.00 | 97 | 1008.3 |
| 20260510101215 | 12 | 277 | 0.0 | 0.0 | 0.00 | 0.00 | 0.00 | 97 | 1008.1 |
| 20260510100710 | 12 | 277 | 0.0 | 0.0 | 0.00 | 0.00 | 0.00 | 97 | 1008.1 |
| 20260510100209 | 12 | 277 | 0.0 | 0.0 | 0.00 | 0.00 | 0.00 | 97 | 1007.8 |
| 20260510095704 | 12 | 277 | 0.0 | 0.0 | 0.00 | 0.00 | 0.00 | 97 | 1008.0 |
| 20260510095159 | 12 | 277 | 0.0 | 0.0 | 0.00 | 0.00 | 0.00 | 97 | 1007.9 |
| 20260510094657 | 12 | 277 | 0.0 | 0.0 | 0.00 | 0.00 | 0.00 | 97 | 1007.9 |
| 20260510094154 | 12 | 277 | 0.0 | 0.0 | 0.00 | 0.00 | 0.00 | 97 | 1007.8 |
| 20260510093650 | 12 | 277 | 0.0 | 0.0 | 0.00 | 0.00 | 0.00 | 97 | 1007.8 |
| 20260510093147 | 12 | 277 | 0.0 | 0.0 | 0.00 | 0.00 | 0.00 | 97 | 1007.7 |
| 20260510092643 | 12 | 277 | 0.0 | 0.0 | 0.00 | 0.00 | 0.00 | 97 | 1007.6 |
| 20260510092139 | 12 | 277 | 0.0 | 0.0 | 0.00 | 0.00 | 0.00 | 97 | 1007.7 |
| 20260510091635 | 12 | 277 | 0.0 | 0.0 | 0.00 | 0.00 | 0.00 | 97 | 1007.4 |
| 20260510091131 | 12 | 277 | 0.0 | 0.0 | 0.00 | 0.00 | 0.00 | 97 | 1007.4 |
| 20260510090628 | 12 | 277 | 0.0 | 0.0 | 0.00 | 0.00 | 0.00 | 97 | 1007.4 |
| 20260510090125 | 12 | 277 | 0.0 | 0.0 | 0.00 | 0.00 | 0.00 | 97 | 1007.3 |
| 20260510085620 | 13 | 277 | 0.0 | 0.0 | 0.00 | 0.00 | 0.00 | 97 | 1007.6 |
| 20260510085115 | 13 | 277 | 0.0 | 0.0 | 0.00 | 0.00 | 0.00 | 97 | 1007.5 |
| 20260510084612 | 13 | 277 | 0.0 | 0.0 | 0.00 | 0.00 | 0.00 | 97 | 1007.6 |
| 20260510084109 | 13 | 277 | 0.0 | 0.0 | 0.00 | 0.00 | 0.00 | 97 | 1007.0 |
| 20260510083605 | 13 | 277 | 0.0 | 0.0 | 0.00 | 0.00 | 0.00 | 96 | 1007.0 |
| 20260510083101 | 13 | 277 | 0.0 | 0.0 | 0.00 | 0.00 | 0.00 | 96 | 1007.2 |
| 20260510082558 | 13 | 277 | 0.0 | 0.0 | 0.00 | 0.00 | 0.00 | 96 | 1006.9 |
| 20260510082054 | 13 | 277 | 0.0 | 0.0 | 0.00 | 0.00 | 0.00 | 96 | 1006.9 |
| 20260510081549 | 13 | 277 | 0.0 | 0.0 | 0.00 | 0.00 | 0.00 | 96 | 1006.8 |
| 20260510081045 | 13 | 277 | 0.0 | 0.0 | 0.00 | 0.00 | 0.00 | 96 | 1006.9 |
| 20260510080544 | 13 | 277 | 0.0 | 0.0 | 0.00 | 0.00 | 0.00 | 96 | 1006.9 |
| 20260510080041 | 13 | 277 | 0.0 | 0.0 | 0.00 | 0.00 | 0.00 | 96 | 1006.9 |
| 20260510075538 | 13 | 277 | 0.0 | 0.0 | 0.00 | 0.00 | 0.00 | 96 | 1006.9 |
| 20260510075035 | 13 | 277 | 0.0 | 0.0 | 0.00 | 0.00 | 0.00 | 96 | 1006.6 |
| 20260510074533 | 13 | 277 | 0.0 | 0.0 | 0.00 | 0.00 | 0.00 | 96 | 1006.6 |
| 20260510074028 | 13 | 277 | 0.0 | 0.0 | 0.00 | 0.00 | 0.00 | 96 | 1006.6 |
| 20260510073524 | 13 | 277 | 0.0 | 0.0 | 0.00 | 0.00 | 0.00 | 96 | 1006.7 |
| 20260510073021 | 13 | 277 | 0.0 | 0.0 | 0.00 | 0.00 | 0.00 | 96 | 1006.5 |
| 20260510072518 | 13 | 277 | 0.0 | 0.0 | 0.00 | 0.00 | 0.00 | 96 | 1006.5 |
| 20260510072014 | 13 | 277 | 0.0 | 0.0 | 0.00 | 0.00 | 0.00 | 95 | 1006.7 |
| 20260510071510 | 13 | 277 | 0.0 | 0.0 | 0.00 | 0.00 | 0.00 | 95 | 1006.5 |
| 20260510071009 | 13 | 277 | 0.0 | 0.0 | 0.00 | 0.00 | 0.00 | 95 | 1006.7 |
| 20260510070505 | 13 | 277 | 0.0 | 0.0 | 0.00 | 0.00 | 0.00 | 95 | 1006.3 |
| 20260510070001 | 14 | 277 | 0.0 | 0.0 | 0.00 | 0.00 | 0.00 | 95 | 1006.4 |
| 20260510065458 | 14 | 277 | 0.0 | 0.0 | 0.00 | 0.00 | 0.00 | 95 | 1006.4 |
| 20260510064954 | 14 | 277 | 0.0 | 0.0 | 0.00 | 0.00 | 0.00 | 95 | 1006.5 |
| 20260510064451 | 14 | 277 | 0.0 | 0.0 | 0.00 | 0.00 | 0.00 | 95 | 1006.4 |
| 20260510063948 | 14 | 277 | 0.0 | 0.0 | 0.00 | 0.00 | 0.00 | 95 | 1006.5 |
| 20260510063444 | 14 | 277 | 0.0 | 0.0 | 0.00 | 0.00 | 0.00 | 95 | 1006.5 |
| 20260510062942 | 14 | 277 | 0.0 | 0.0 | 0.00 | 0.00 | 0.00 | 94 | 1006.5 |
| 20260510062442 | 14 | 277 | 0.0 | 0.0 | 0.00 | 0.00 | 0.00 | 94 | 1006.6 |
| 20260510061938 | 14 | 277 | 0.0 | 0.0 | 0.00 | 0.00 | 0.00 | 95 | 1006.3 |
| 20260510061435 | 14 | 277 | 0.0 | 0.0 | 0.00 | 0.00 | 0.00 | 95 | 1006.6 |
| 20260510060931 | 14 | 277 | 0.0 | 0.0 | 0.00 | 0.00 | 0.00 | 95 | 1006.5 |
| 20260510060428 | 14 | 277 | 0.0 | 0.0 | 0.00 | 0.00 | 0.00 | 95 | 1006.5 |
| 20260510055924 | 14 | 277 | 0.0 | 0.0 | 0.00 | 0.00 | 0.00 | 95 | 1006.7 |
| 20260510055420 | 14 | 277 | 0.0 | 0.0 | 0.00 | 0.00 | 0.00 | 95 | 1006.5 |
| 20260510054919 | 14 | 277 | 0.0 | 0.0 | 0.00 | 0.00 | 0.00 | 95 | 1006.7 |
| 20260510054414 | 14 | 277 | 0.0 | 0.0 | 0.00 | 0.00 | 0.00 | 95 | 1006.6 |
| 20260510053909 | 15 | 277 | 0.0 | 0.0 | 0.00 | 0.00 | 0.00 | 95 | 1006.6 |
| 20260510053405 | 15 | 277 | 0.0 | 0.0 | 0.00 | 0.00 | 0.00 | 95 | 1006.6 |
| 20260510052901 | 15 | 277 | 0.0 | 0.0 | 0.00 | 0.00 | 0.00 | 95 | 1006.4 |
| 20260510052357 | 15 | 277 | 0.0 | 0.0 | 0.00 | 0.00 | 0.00 | 95 | 1006.6 |
| 20260510051853 | 15 | 277 | 0.0 | 0.0 | 0.00 | 0.00 | 0.00 | 95 | 1006.6 |
| 20260510051350 | 15 | 277 | 0.0 | 0.0 | 0.00 | 0.00 | 0.00 | 95 | 1006.8 |
| 20260510050847 | 15 | 277 | 0.0 | 0.0 | 0.00 | 0.00 | 0.00 | 95 | 1006.7 |
| 20260510050344 | 15 | 277 | 0.0 | 0.0 | 0.00 | 0.00 | 0.00 | 95 | 1006.8 |
| 20260510045841 | 15 | 277 | 0.0 | 0.0 | 0.00 | 0.00 | 0.00 | 95 | 1006.8 |
| 20260510045337 | 15 | 277 | 0.0 | 0.0 | 0.00 | 0.00 | 0.00 | 94 | 1006.7 |
| 20260510044835 | 15 | 277 | 0.0 | 0.0 | 0.00 | 0.00 | 0.00 | 94 | 1006.8 |
| 20260510044331 | 15 | 277 | 0.0 | 0.0 | 0.00 | 0.00 | 0.00 | 94 | 1006.8 |
| 20260510043828 | 15 | 277 | 0.0 | 0.0 | 0.00 | 0.00 | 0.00 | 94 | 1006.9 |
| 20260510043324 | 15 | 277 | 0.0 | 0.0 | 0.00 | 0.00 | 0.00 | 93 | 1007.0 |
| 20260510042822 | 15 | 277 | 0.0 | 0.0 | 0.00 | 0.00 | 0.00 | 93 | 1006.9 |
| 20260510042317 | 15 | 277 | 0.0 | 0.0 | 0.00 | 0.00 | 0.00 | 93 | 1007.0 |
| 20260510041814 | 15 | 277 | 0.0 | 0.0 | 0.00 | 0.00 | 0.00 | 92 | 1006.9 |
| 20260510041311 | 15 | 277 | 0.0 | 0.0 | 0.00 | 0.00 | 0.00 | 93 | 1007.0 |
| 20260510040808 | 15 | 277 | 0.0 | 0.0 | 0.00 | 0.00 | 0.00 | 93 | 1006.7 |
| 20260510040305 | 15 | 277 | 0.0 | 0.0 | 0.00 | 0.00 | 0.00 | 93 | 1006.8 |
| 20260510035800 | 15 | 277 | 0.0 | 0.0 | 0.00 | 0.00 | 0.00 | 93 | 1006.9 |
| 20260510035256 | 15 | 277 | 0.0 | 0.0 | 0.00 | 0.00 | 0.00 | 93 | 1007.2 |
| 20260510034752 | 15 | 277 | 0.0 | 0.0 | 0.00 | 0.00 | 0.00 | 92 | 1007.2 |
| 20260510034250 | 15 | 277 | 0.0 | 0.0 | 0.00 | 0.00 | 0.00 | 92 | 1007.0 |
| 20260510033746 | 15 | 277 | 0.0 | 0.0 | 0.00 | 0.00 | 0.00 | 91 | 1007.0 |
| 20260510033244 | 15 | 277 | 0.0 | 0.0 | 0.00 | 0.00 | 0.00 | 92 | 1007.0 |
| 20260510032740 | 15 | 277 | 0.0 | 0.0 | 0.00 | 0.00 | 0.00 | 91 | 1006.9 |
| 20260510032236 | 15 | 277 | 0.0 | 0.0 | 0.00 | 0.00 | 0.00 | 91 | 1007.0 |
| 20260510031732 | 16 | 277 | 0.0 | 0.0 | 0.00 | 0.00 | 0.00 | 92 | 1007.0 |
| 20260510031228 | 16 | 277 | 0.0 | 0.0 | 0.00 | 0.00 | 0.00 | 93 | 1007.0 |
| 20260510030727 | 15 | 277 | 0.0 | 0.0 | 0.00 | 0.00 | 0.00 | 92 | 1006.8 |
| 20260510030225 | 15 | 277 | 0.0 | 0.0 | 0.00 | 0.00 | 0.00 | 92 | 1006.9 |
| 20260510025722 | 15 | 277 | 0.0 | 0.0 | 0.00 | 0.00 | 0.00 | 92 | 1006.8 |
| 20260510025219 | 16 | 277 | 0.0 | 0.0 | 0.00 | 0.00 | 0.00 | 92 | 1007.0 |
| 20260510024716 | 16 | 277 | 0.0 | 0.0 | 0.00 | 0.00 | 0.00 | 92 | 1007.0 |
| 20260510024212 | 16 | 277 | 0.0 | 0.0 | 0.00 | 0.00 | 0.00 | 93 | 1006.7 |
| 20260510023708 | 16 | 277 | 0.0 | 0.0 | 0.00 | 0.00 | 0.00 | 93 | 1006.8 |
| 20260510023206 | 15 | 277 | 0.0 | 0.0 | 0.00 | 0.00 | 0.00 | 93 | 1006.6 |
| 20260510022702 | 15 | 277 | 0.0 | 0.0 | 0.00 | 0.00 | 0.00 | 93 | 1006.7 |
| 20260510022156 | 15 | 277 | 0.0 | 0.0 | 0.00 | 0.00 | 0.00 | 93 | 1006.7 |
| 20260510021652 | 15 | 277 | 0.0 | 0.0 | 0.00 | 0.00 | 0.00 | 92 | 1006.6 |
| 20260510021150 | 15 | 277 | 1.6 | 1.6 | 0.00 | 0.00 | 0.00 | 92 | 1006.9 |
| 20260510020650 | 16 | 277 | 0.0 | 0.0 | 0.00 | 0.00 | 0.00 | 91 | 1006.6 |
| 20260510020145 | 16 | 277 | 0.0 | 0.0 | 0.00 | 0.00 | 0.00 | 91 | 1006.5 |
| 20260510015641 | 16 | 277 | 0.0 | 0.0 | 0.00 | 0.00 | 0.00 | 90 | 1006.6 |
| 20260510015138 | 16 | 277 | 0.0 | 0.0 | 0.00 | 0.00 | 0.00 | 90 | 1006.4 |
| 20260510014638 | 16 | 277 | 0.0 | 0.0 | 0.00 | 0.00 | 0.00 | 90 | 1006.4 |
| 20260510014136 | 16 | 277 | 0.0 | 0.0 | 0.00 | 0.00 | 0.00 | 90 | 1006.5 |
| 20260510013637 | 16 | 277 | 0.0 | 0.0 | 0.00 | 0.00 | 0.00 | 89 | 1006.4 |
| 20260510013132 | 16 | 277 | 0.0 | 0.0 | 0.00 | 0.00 | 0.00 | 90 | 1006.2 |
| 20260510012632 | 16 | 277 | 0.0 | 0.0 | 0.00 | 0.00 | 0.00 | 90 | 1006.2 |
| 20260510012129 | 16 | 277 | 0.0 | 0.0 | 0.00 | 0.00 | 0.00 | 89 | 1006.1 |
| 20260510011629 | 16 | 277 | 0.0 | 0.0 | 0.00 | 0.00 | 0.00 | 89 | 1005.9 |
| 20260510011125 | 17 | 277 | 0.0 | 0.0 | 0.00 | 0.00 | 0.00 | 88 | 1006.1 |
| 20260510010621 | 17 | 277 | 0.0 | 0.0 | 0.00 | 0.00 | 0.00 | 87 | 1005.8 |
| 20260510010118 | 17 | 277 | 0.0 | 0.0 | 0.00 | 0.00 | 0.00 | 87 | 1005.9 |
| 20260510005613 | 17 | 277 | 0.0 | 0.0 | 0.00 | 0.00 | 0.00 | 86 | 1005.8 |
| 20260510005111 | 17 | 277 | 0.0 | 0.0 | 0.00 | 0.00 | 0.00 | 85 | 1005.6 |
| 20260510004609 | 18 | 277 | 0.0 | 0.0 | 0.00 | 0.00 | 0.00 | 83 | 1005.5 |
| 20260510004107 | 18 | 277 | 0.0 | 0.0 | 0.00 | 0.00 | 0.00 | 82 | 1005.3 |
| 20260510003604 | 18 | 277 | 0.0 | 0.0 | 0.00 | 0.00 | 0.00 | 82 | 1005.3 |
| 20260510003059 | 18 | 277 | 0.0 | 0.0 | 0.00 | 0.00 | 0.00 | 82 | 1005.1 |
| 20260510002554 | 18 | 277 | 0.0 | 0.0 | 0.00 | 0.00 | 0.00 | 82 | 1005.2 |
| 20260510002051 | 18 | 278 | 0.0 | 0.0 | 0.00 | 0.00 | 0.00 | 81 | 1005.1 |
| 20260510001548 | 19 | 242 | 1.6 | 0.0 | 0.00 | 0.00 | 0.00 | 79 | 1005.2 |
| 20260510001048 | 20 | 242 | 0.0 | 0.0 | 0.00 | 0.00 | 0.00 | 77 | 1005.1 |
| 20260510000542 | 20 | 242 | 0.0 | 0.0 | 0.00 | 0.00 | 0.00 | 75 | 1005.2 |
| 20260510000039 | 20 | 242 | 0.0 | 0.0 | 0.00 | 0.00 | 0.00 | 72 | 1004.9 |
| 20260509235536 | 20 | 242 | 0.0 | 0.0 | 0.00 | 0.00 | 0.00 | 72 | 1004.8 |
| 20260509235033 | 20 | 242 | 0.0 | 0.0 | 0.00 | 0.00 | 0.00 | 72 | 1004.8 |
| 20260509234529 | 20 | 242 | 0.0 | 0.0 | 0.00 | 0.00 | 0.00 | 71 | 1004.7 |
| 20260509234027 | 20 | 240 | 1.6 | 1.6 | 0.00 | 0.00 | 0.00 | 71 | 1004.8 |
| 20260509233524 | 21 | 230 | 0.0 | 0.0 | 0.00 | 0.00 | 0.00 | 70 | 1004.9 |
| 20260509233021 | 21 | 230 | 1.6 | 1.6 | 0.00 | 0.00 | 0.00 | 70 | 1004.8 |
| 20260509232518 | 21 | 282 | 1.6 | 1.6 | 0.00 | 0.00 | 0.00 | 69 | 1004.7 |
| 20260509232014 | 21 | 282 | 1.6 | 1.6 | 0.00 | 0.00 | 0.00 | 68 | 1005.0 |
| 20260509231511 | 21 | 282 | 0.0 | 0.0 | 0.00 | 0.00 | 0.00 | 67 | 1004.9 |
| 20260509231008 | 21 | 282 | 1.6 | 1.6 | 0.00 | 0.00 | 0.00 | 67 | 1005.0 |
| 20260509230505 | 21 | 283 | 3.2 | 3.2 | 0.00 | 0.00 | 0.00 | 66 | 1004.7 |
| 20260509230002 | 21 | 228 | 0.0 | 1.6 | 0.00 | 0.00 | 0.00 | 66 | 1004.6 |
| 20260509225457 | 22 | 285 | 0.0 | 0.0 | 0.00 | 0.00 | 0.00 | 65 | 1004.6 |
| 20260509224953 | 22 | 247 | 0.0 | 0.0 | 0.00 | 0.00 | 0.00 | 65 | 1004.5 |
| 20260509224449 | 22 | 246 | 1.6 | 1.6 | 0.00 | 0.00 | 0.00 | 64 | 1004.6 |
| 20260509223946 | 22 | 221 | 1.6 | 1.6 | 0.00 | 0.00 | 0.00 | 63 | 1004.6 |
| 20260509223443 | 22 | 283 | 0.0 | 0.0 | 0.00 | 0.00 | 0.00 | 63 | 1004.3 |
| 20260509222940 | 22 | 266 | 1.6 | 1.6 | 0.00 | 0.00 | 0.00 | 62 | 1004.3 |
| 20260509222435 | 22 | 266 | 1.6 | 1.6 | 0.00 | 0.00 | 0.00 | 61 | 1004.3 |
| 20260509221931 | 23 | 262 | 1.6 | 3.2 | 0.00 | 0.00 | 0.00 | 61 | 1004.2 |
| 20260509221428 | 23 | 265 | 1.6 | 1.6 | 0.00 | 0.00 | 0.00 | 59 | 1004.2 |
| 20260509220924 | 23 | 152 | 0.0 | 1.6 | 0.00 | 0.00 | 0.00 | 58 | 1004.2 |
| 20260509220420 | 23 | 262 | 0.0 | 0.0 | 0.00 | 0.00 | 0.00 | 61 | 1004.5 |
| 20260509215916 | 23 | 263 | 1.6 | 1.6 | 0.00 | 0.00 | 0.00 | 60 | 1004.3 |
| 20260509215412 | 23 | 278 | 3.2 | 3.2 | 0.00 | 0.00 | 0.00 | 60 | 1004.4 |
| 20260509214910 | 23 | 341 | 6.4 | 6.4 | 0.00 | 0.00 | 0.00 | 59 | 1004.1 |
| 20260509214407 | 23 | 259 | 0.0 | 0.0 | 0.00 | 0.00 | 0.00 | 61 | 1004.3 |
| 20260509213904 | 23 | 199 | 0.0 | 0.0 | 0.00 | 0.00 | 0.00 | 59 | 1004.2 |
| 20260509213359 | 23 | 155 | 1.6 | 1.6 | 0.00 | 0.00 | 0.00 | 58 | 1004.5 |
| 20260509212857 | 23 | 187 | 3.2 | 3.2 | 0.00 | 0.00 | 0.00 | 58 | 1004.2 |
| 20260509212354 | 23 | 283 | 1.6 | 1.6 | 0.00 | 0.00 | 0.00 | 60 | 1004.4 |
| 20260509211850 | 22 | 226 | 1.6 | 1.6 | 0.00 | 0.00 | 0.00 | 59 | 1004.2 |
| 20260509211346 | 22 | 304 | 3.2 | 3.2 | 0.00 | 0.00 | 0.00 | 60 | 1004.0 |
| 20260509210843 | 22 | 245 | 1.6 | 3.2 | 0.00 | 0.00 | 0.00 | 63 | 1003.9 |
| 20260509210341 | 22 | 311 | 3.2 | 3.2 | 0.00 | 0.00 | 0.00 | 62 | 1004.1 |
| 20260509205840 | 22 | 266 | 3.2 | 3.2 | 0.00 | 0.00 | 0.00 | 62 | 1004.2 |
| 20260509205335 | 23 | 280 | 3.2 | 3.2 | 0.00 | 0.00 | 0.00 | 63 | 1004.2 |
| 20260509204832 | 23 | 321 | 4.8 | 4.8 | 0.00 | 0.00 | 0.00 | 61 | 1004.2 |
| 20260509204328 | 23 | 326 | 6.4 | 9.7 | 0.00 | 0.00 | 0.00 | 60 | 1003.9 |
| 20260509203824 | 23 | 148 | 8.0 | 12.9 | 0.00 | 0.00 | 0.00 | 60 | 1004.1 |
| 20260509203321 | 23 | 146 | 3.2 | 4.8 | 0.00 | 0.00 | 0.00 | 59 | 1004.2 |
| 20260509202817 | 23 | 155 | 1.6 | 3.2 | 0.00 | 0.00 | 0.00 | 59 | 1004.0 |
| 20260509202314 | 23 | 225 | 1.6 | 1.6 | 0.00 | 0.00 | 0.00 | 61 | 1003.9 |
| 20260509201813 | 23 | 291 | 3.2 | 3.2 | 0.00 | 0.00 | 0.00 | 62 | 1004.2 |
| 20260509201310 | 23 | 284 | 1.6 | 4.8 | 0.00 | 0.00 | 0.00 | 61 | 1004.4 |
| 20260509200806 | 23 | 355 | 4.8 | 9.7 | 0.00 | 0.00 | 0.00 | 60 | 1004.3 |
| 20260509200302 | 23 | 227 | 1.6 | 3.2 | 0.00 | 0.00 | 0.00 | 65 | 1004.2 |
| 20260509195758 | 23 | 225 | 0.0 | 0.0 | 0.00 | 0.00 | 0.00 | 62 | 1004.5 |
| 20260509195253 | 22 | 255 | 1.6 | 1.6 | 0.00 | 0.00 | 0.00 | 66 | 1004.3 |
| 20260509194748 | 23 | 176 | 6.4 | 6.4 | 0.00 | 0.00 | 0.00 | 60 | 1004.6 |
| 20260509194244 | 23 | 279 | 0.0 | 1.6 | 0.00 | 0.00 | 0.00 | 62 | 1004.4 |
| 20260509193741 | 22 | 185 | 1.6 | 1.6 | 0.00 | 0.00 | 0.00 | 63 | 1004.5 |
| 20260509193241 | 22 | 241 | 1.6 | 1.6 | 0.00 | 0.00 | 0.00 | 65 | 1004.6 |
| 20260509192737 | 22 | 316 | 4.8 | 4.8 | 0.00 | 0.00 | 0.00 | 67 | 1004.6 |
| 20260509192232 | 21 | 276 | 3.2 | 3.2 | 0.00 | 0.00 | 0.00 | 67 | 1004.6 |
| 20260509191728 | 21 | 210 | 1.6 | 1.6 | 0.00 | 0.00 | 0.00 | 67 | 1004.6 |
| 20260509191225 | 21 | 259 | 3.2 | 3.2 | 0.00 | 0.00 | 0.00 | 69 | 1004.8 |
| 20260509190721 | 21 | 269 | 3.2 | 3.2 | 0.00 | 0.00 | 0.00 | 68 | 1004.8 |